createdAt,value
2022-12-07T00:00:29.282Z,21.58
2022-12-07T00:01:29.219Z,21.52
2022-12-07T00:02:29.295Z,21.47
2022-12-07T00:03:29.205Z,21.44
2022-12-07T00:04:28.986Z,21.38
2022-12-07T00:05:28.915Z,21.35
2022-12-07T00:06:28.843Z,21.35
2022-12-07T00:07:28.802Z,21.32
2022-12-07T00:08:28.728Z,21.29
2022-12-07T00:09:28.632Z,21.27
2022-12-07T00:10:28.555Z,21.19
2022-12-07T00:11:28.487Z,21.17
2022-12-07T00:12:28.416Z,21.17
2022-12-07T00:13:28.346Z,21.16
2022-12-07T00:14:28.298Z,21.13
2022-12-07T00:15:28.206Z,21.09
2022-12-07T00:16:28.164Z,21.06
2022-12-07T00:17:28.059Z,20.99
2022-12-07T00:18:27.995Z,20.99
2022-12-07T00:19:27.923Z,20.98
2022-12-07T00:20:27.895Z,20.97
2022-12-07T00:21:27.787Z,20.94
2022-12-07T00:22:27.717Z,20.89
2022-12-07T00:23:27.647Z,20.88
2022-12-07T00:24:27.575Z,20.87
2022-12-07T00:25:27.503Z,20.85
2022-12-07T00:26:27.467Z,20.84
2022-12-07T00:27:27.356Z,20.84
2022-12-07T00:28:27.288Z,20.79
2022-12-07T00:29:27.215Z,20.77
2022-12-07T00:30:27.148Z,20.74
2022-12-07T00:31:27.125Z,20.74
2022-12-07T00:32:27.024Z,20.70
2022-12-07T00:33:27.055Z,20.70
2022-12-07T00:34:26.855Z,20.69
2022-12-07T00:35:26.794Z,20.66
2022-12-07T00:36:27.556Z,20.64
2022-12-07T00:37:26.652Z,20.62
2022-12-07T00:38:26.620Z,20.62
2022-12-07T00:39:26.524Z,20.61
2022-12-07T00:40:26.455Z,20.62
2022-12-07T00:41:26.393Z,20.59
2022-12-07T00:42:26.324Z,20.58
2022-12-07T00:43:26.266Z,20.57
2022-12-07T00:44:26.236Z,20.55
2022-12-07T00:45:26.148Z,20.57
2022-12-07T00:46:26.177Z,20.54
2022-12-07T00:47:26.060Z,20.52
2022-12-07T00:48:25.960Z,20.51
2022-12-07T00:49:25.900Z,20.50
2022-12-07T00:50:25.892Z,20.48
2022-12-07T00:51:25.776Z,20.47
2022-12-07T00:52:25.714Z,20.43
2022-12-07T00:53:25.656Z,20.42
2022-12-07T00:54:25.605Z,20.42
2022-12-07T00:55:25.544Z,20.38
2022-12-07T00:56:25.502Z,20.38
2022-12-07T00:57:25.425Z,20.35
2022-12-07T00:58:25.360Z,20.36
2022-12-07T00:59:25.308Z,20.36
2022-12-07T01:00:25.245Z,20.35
2022-12-07T01:01:25.255Z,20.35
2022-12-07T01:02:25.164Z,20.33
2022-12-07T01:03:25.189Z,20.33
2022-12-07T01:04:25.041Z,20.32
2022-12-07T01:05:24.994Z,20.32
2022-12-07T01:06:24.940Z,20.32
2022-12-07T01:07:24.889Z,20.31
2022-12-07T01:08:24.943Z,20.32
2022-12-07T01:09:24.781Z,20.31
2022-12-07T01:10:24.721Z,20.31
2022-12-07T01:11:24.666Z,20.31
2022-12-07T01:12:24.611Z,20.29
2022-12-07T01:13:24.554Z,20.29
2022-12-07T01:14:24.537Z,20.29
2022-12-07T01:15:24.456Z,20.29
2022-12-07T01:16:24.468Z,20.28
2022-12-07T01:17:24.338Z,20.28
2022-12-07T01:18:24.294Z,20.28
2022-12-07T01:19:24.237Z,20.26
2022-12-07T01:20:24.214Z,20.26
2022-12-07T01:21:24.162Z,20.26
2022-12-07T01:22:24.089Z,20.24
2022-12-07T01:23:24.038Z,20.21
2022-12-07T01:24:23.986Z,20.21
2022-12-07T01:25:23.941Z,20.21
2022-12-07T01:26:23.926Z,20.20
2022-12-07T01:27:23.846Z,20.17
2022-12-07T01:28:23.806Z,20.18
2022-12-07T01:29:23.745Z,20.17
2022-12-07T01:30:23.857Z,20.17
2022-12-07T01:31:23.749Z,20.17
2022-12-07T01:32:23.622Z,20.17
2022-12-07T01:33:23.546Z,20.17
2022-12-07T01:34:23.494Z,20.17
2022-12-07T01:35:23.446Z,20.16
2022-12-07T01:36:23.406Z,20.16
2022-12-07T01:37:23.363Z,20.16
2022-12-07T01:38:23.344Z,20.14
2022-12-07T01:39:23.262Z,20.14
2022-12-07T01:40:23.219Z,20.14
2022-12-07T01:41:23.176Z,20.13
2022-12-07T01:42:23.124Z,20.11
2022-12-07T01:43:23.068Z,20.11
2022-12-07T01:44:23.061Z,20.13
2022-12-07T01:45:22.984Z,20.13
2022-12-07T01:46:22.978Z,20.13
2022-12-07T01:47:22.891Z,20.13
2022-12-07T01:48:22.843Z,20.13
2022-12-07T01:49:22.802Z,20.11
2022-12-07T01:50:22.780Z,20.13
2022-12-07T01:51:22.715Z,20.11
2022-12-07T01:52:22.667Z,20.11
2022-12-07T01:53:22.628Z,20.11
2022-12-07T01:54:22.590Z,20.11
2022-12-07T01:55:22.538Z,20.08
2022-12-07T01:56:22.536Z,20.10
2022-12-07T01:57:22.452Z,20.06
2022-12-07T01:58:22.404Z,20.08
2022-12-07T01:59:22.368Z,20.06
2022-12-07T02:00:22.323Z,20.08
2022-12-07T02:01:22.354Z,20.06
2022-12-07T02:02:22.300Z,20.06
2022-12-07T02:03:22.199Z,20.06
2022-12-07T02:04:22.164Z,20.05
2022-12-07T02:05:22.125Z,20.05
2022-12-07T02:06:22.085Z,20.05
2022-12-07T02:07:22.040Z,20.05
2022-12-07T02:08:22.148Z,20.03
2022-12-07T02:09:21.953Z,20.02
2022-12-07T02:10:21.920Z,20.02
2022-12-07T02:11:21.872Z,20.02
2022-12-07T02:12:21.837Z,20.01
2022-12-07T02:13:21.786Z,19.99
2022-12-07T02:14:21.798Z,20.01
2022-12-07T02:15:21.708Z,19.99
2022-12-07T02:16:21.794Z,19.99
2022-12-07T02:17:21.637Z,19.99
2022-12-07T02:18:21.596Z,19.99
2022-12-07T02:19:21.570Z,19.99
2022-12-07T02:20:21.560Z,20.01
2022-12-07T02:21:21.493Z,19.98
2022-12-07T02:22:21.450Z,19.98
2022-12-07T02:23:21.409Z,19.96
2022-12-07T02:24:21.373Z,19.98
2022-12-07T02:25:21.457Z,19.98
2022-12-07T02:26:21.341Z,19.98
2022-12-07T02:27:21.265Z,19.98
2022-12-07T02:28:21.226Z,19.98
2022-12-07T02:29:21.201Z,19.96
2022-12-07T02:30:21.153Z,19.96
2022-12-07T02:31:21.218Z,19.96
2022-12-07T02:32:21.121Z,19.95
2022-12-07T02:33:21.040Z,19.96
2022-12-07T02:34:20.997Z,19.95
2022-12-07T02:35:20.953Z,19.98
2022-12-07T02:36:20.914Z,19.96
2022-12-07T02:37:20.869Z,19.95
2022-12-07T02:38:20.863Z,19.96
2022-12-07T02:39:20.801Z,19.98
2022-12-07T02:40:20.765Z,19.98
2022-12-07T02:41:20.731Z,19.98
2022-12-07T02:42:20.693Z,19.96
2022-12-07T02:43:20.659Z,19.96
2022-12-07T02:44:20.642Z,19.98
2022-12-07T02:45:20.584Z,19.95
2022-12-07T02:46:20.610Z,19.95
2022-12-07T02:47:20.514Z,19.95
2022-12-07T02:48:20.482Z,19.95
2022-12-07T02:49:20.442Z,19.96
2022-12-07T02:50:20.430Z,19.95
2022-12-07T02:51:20.376Z,19.95
2022-12-07T02:52:20.338Z,19.95
2022-12-07T02:53:20.294Z,19.95
2022-12-07T02:54:20.259Z,19.95
2022-12-07T02:55:20.222Z,19.95
2022-12-07T02:56:20.213Z,19.92
2022-12-07T02:57:20.151Z,19.94
2022-12-07T02:58:20.119Z,19.94
2022-12-07T02:59:20.076Z,19.92
2022-12-07T03:00:20.041Z,19.91
2022-12-07T03:01:20.029Z,19.92
2022-12-07T03:02:20.080Z,19.92
2022-12-07T03:03:19.918Z,19.88
2022-12-07T03:04:19.874Z,19.88
2022-12-07T03:05:19.835Z,19.88
2022-12-07T03:06:19.798Z,19.87
2022-12-07T03:07:19.763Z,19.87
2022-12-07T03:08:19.824Z,19.86
2022-12-07T03:09:19.682Z,19.87
2022-12-07T03:10:19.639Z,19.88
2022-12-07T03:11:22.086Z,19.88
2022-12-07T03:12:19.564Z,19.88
2022-12-07T03:13:19.522Z,19.87
2022-12-07T03:14:19.515Z,19.87
2022-12-07T03:15:19.443Z,19.86
2022-12-07T03:16:19.503Z,19.86
2022-12-07T03:17:19.359Z,19.84
2022-12-07T03:18:19.317Z,19.84
2022-12-07T03:19:19.279Z,19.86
2022-12-07T03:20:19.284Z,19.86
2022-12-07T03:21:19.208Z,19.84
2022-12-07T03:22:19.176Z,19.84
2022-12-07T03:23:19.136Z,19.84
2022-12-07T03:24:19.095Z,19.84
2022-12-07T03:25:19.059Z,19.84
2022-12-07T03:26:19.048Z,19.83
2022-12-07T03:27:18.971Z,19.84
2022-12-07T03:28:18.935Z,19.81
2022-12-07T03:29:18.900Z,19.84
2022-12-07T03:30:18.856Z,19.81
2022-12-07T03:31:18.893Z,19.83
2022-12-07T03:32:18.803Z,19.81
2022-12-07T03:33:18.740Z,19.80
2022-12-07T03:34:18.708Z,19.80
2022-12-07T03:35:18.667Z,19.80
2022-12-07T03:36:18.620Z,19.81
2022-12-07T03:37:18.585Z,19.80
2022-12-07T03:38:18.570Z,19.80
2022-12-07T03:39:18.533Z,19.78
2022-12-07T03:40:18.478Z,19.80
2022-12-07T03:41:18.438Z,19.80
2022-12-07T03:42:18.396Z,19.77
2022-12-07T03:43:18.365Z,19.78
2022-12-07T03:44:18.364Z,19.77
2022-12-07T03:45:18.288Z,19.78
2022-12-07T03:46:18.322Z,19.77
2022-12-07T03:47:18.209Z,19.77
2022-12-07T03:48:18.165Z,19.77
2022-12-07T03:49:18.124Z,19.76
2022-12-07T03:50:18.116Z,19.77
2022-12-07T03:51:18.048Z,19.77
2022-12-07T03:52:18.013Z,19.77
2022-12-07T03:53:17.972Z,19.77
2022-12-07T03:54:17.928Z,19.77
2022-12-07T03:55:17.888Z,19.77
2022-12-07T03:56:17.873Z,19.77
2022-12-07T03:57:17.808Z,19.77
2022-12-07T03:58:17.766Z,19.76
2022-12-07T03:59:17.729Z,19.76
2022-12-07T04:00:17.700Z,19.76
2022-12-07T04:01:17.690Z,19.76
2022-12-07T04:02:17.633Z,19.76
2022-12-07T04:03:17.672Z,19.76
2022-12-07T04:04:17.521Z,19.77
2022-12-07T04:05:17.473Z,19.76
2022-12-07T04:06:17.437Z,19.77
2022-12-07T04:07:17.393Z,19.77
2022-12-07T04:08:17.452Z,19.76
2022-12-07T04:09:17.310Z,19.74
2022-12-07T04:10:17.274Z,19.74
2022-12-07T04:11:17.221Z,19.76
2022-12-07T04:12:17.194Z,19.76
2022-12-07T04:13:17.149Z,19.76
2022-12-07T04:14:17.145Z,19.77
2022-12-07T04:15:17.061Z,19.76
2022-12-07T04:16:17.117Z,19.76
2022-12-07T04:17:16.990Z,19.76
2022-12-07T04:18:16.977Z,19.76
2022-12-07T04:19:16.908Z,19.74
2022-12-07T04:20:16.905Z,19.77
2022-12-07T04:21:16.826Z,19.76
2022-12-07T04:22:16.782Z,19.76
2022-12-07T04:23:16.746Z,19.77
2022-12-07T04:24:16.709Z,19.76
2022-12-07T04:25:16.669Z,19.77
2022-12-07T04:26:16.653Z,19.78
2022-12-07T04:27:16.587Z,19.78
2022-12-07T04:28:16.543Z,19.80
2022-12-07T04:29:16.510Z,19.77
2022-12-07T04:30:16.465Z,19.77
2022-12-07T04:31:16.473Z,19.77
2022-12-07T04:32:16.409Z,19.78
2022-12-07T04:33:16.341Z,19.76
2022-12-07T04:34:16.294Z,19.77
2022-12-07T04:35:16.246Z,19.78
2022-12-07T04:36:16.206Z,19.77
2022-12-07T04:37:16.170Z,19.77
2022-12-07T04:38:16.170Z,19.78
2022-12-07T04:39:16.088Z,19.76
2022-12-07T04:40:16.041Z,19.77
2022-12-07T04:41:16.006Z,19.78
2022-12-07T04:42:15.962Z,19.77
2022-12-07T04:43:15.910Z,19.77
2022-12-07T04:44:15.899Z,19.76
2022-12-07T04:45:15.814Z,19.76
2022-12-07T04:46:15.843Z,19.76
2022-12-07T04:47:15.826Z,19.76
2022-12-07T04:48:15.686Z,19.76
2022-12-07T04:49:15.647Z,19.77
2022-12-07T04:50:15.635Z,19.76
2022-12-07T04:51:15.563Z,19.76
2022-12-07T04:52:15.515Z,19.76
2022-12-07T04:53:15.467Z,19.76
2022-12-07T04:54:15.430Z,19.74
2022-12-07T04:55:15.379Z,19.76
2022-12-07T04:56:15.367Z,19.76
2022-12-07T04:57:15.291Z,19.74
2022-12-07T04:58:15.251Z,19.77
2022-12-07T04:59:15.194Z,19.76
2022-12-07T05:00:15.155Z,19.76
2022-12-07T05:01:15.223Z,19.76
2022-12-07T05:02:15.153Z,19.76
2022-12-07T05:03:15.039Z,19.74
2022-12-07T05:04:14.995Z,19.74
2022-12-07T05:05:14.954Z,19.74
2022-12-07T05:06:14.911Z,19.74
2022-12-07T05:07:14.878Z,19.74
2022-12-07T05:08:14.879Z,19.74
2022-12-07T05:09:14.793Z,19.76
2022-12-07T05:10:14.759Z,19.73
2022-12-07T05:11:14.715Z,19.73
2022-12-07T05:12:14.677Z,19.74
2022-12-07T05:13:14.632Z,19.73
2022-12-07T05:14:14.680Z,19.73
2022-12-07T05:15:14.556Z,19.71
2022-12-07T05:16:14.573Z,19.69
2022-12-07T05:17:14.480Z,19.71
2022-12-07T05:18:14.444Z,19.73
2022-12-07T05:19:14.403Z,19.71
2022-12-07T05:20:14.396Z,19.73
2022-12-07T05:21:14.318Z,19.73
2022-12-07T05:22:14.293Z,19.77
2022-12-07T05:23:14.248Z,19.77
2022-12-07T05:24:14.203Z,19.83
2022-12-07T05:25:14.160Z,19.87
2022-12-07T05:26:14.157Z,19.86
2022-12-07T05:27:14.080Z,19.84
2022-12-07T05:28:14.044Z,19.83
2022-12-07T05:29:14.006Z,19.81
2022-12-07T05:30:13.955Z,19.81
2022-12-07T05:31:13.937Z,19.81
2022-12-07T05:32:13.907Z,19.80
2022-12-07T05:33:13.829Z,19.80
2022-12-07T05:34:13.784Z,19.80
2022-12-07T05:35:13.741Z,19.81
2022-12-07T05:36:13.709Z,19.81
2022-12-07T05:37:13.664Z,19.80
2022-12-07T05:38:13.653Z,19.81
2022-12-07T05:39:13.600Z,19.83
2022-12-07T05:40:13.540Z,19.84
2022-12-07T05:41:13.510Z,19.83
2022-12-07T05:42:13.480Z,19.83
2022-12-07T05:43:13.437Z,19.83
2022-12-07T05:44:13.431Z,19.84
2022-12-07T05:45:13.360Z,19.84
2022-12-07T05:46:13.374Z,19.83
2022-12-07T05:47:13.278Z,19.84
2022-12-07T05:48:13.229Z,19.83
2022-12-07T05:49:13.191Z,19.83
2022-12-07T05:50:13.194Z,19.84
2022-12-07T05:51:13.114Z,19.83
2022-12-07T05:52:13.077Z,19.83
2022-12-07T05:53:13.037Z,19.81
2022-12-07T05:54:12.989Z,19.81
2022-12-07T05:55:12.942Z,19.81
2022-12-07T05:56:12.950Z,19.81
2022-12-07T05:57:12.862Z,19.81
2022-12-07T05:58:12.825Z,19.83
2022-12-07T05:59:12.785Z,19.81
2022-12-07T06:00:12.738Z,19.80
2022-12-07T06:01:12.715Z,19.80
2022-12-07T06:02:12.800Z,19.80
2022-12-07T06:03:12.712Z,19.80
2022-12-07T06:04:12.574Z,19.80
2022-12-07T06:05:12.530Z,19.78
2022-12-07T06:06:12.537Z,19.80
2022-12-07T06:07:12.446Z,19.78
2022-12-07T06:08:12.470Z,19.80
2022-12-07T06:09:12.371Z,19.80
2022-12-07T06:10:12.322Z,19.80
2022-12-07T06:11:12.283Z,19.78
2022-12-07T06:12:12.239Z,19.78
2022-12-07T06:13:12.207Z,19.78
2022-12-07T06:14:12.194Z,19.78
2022-12-07T06:15:12.130Z,19.78
2022-12-07T06:16:12.171Z,19.78
2022-12-07T06:17:12.043Z,19.77
2022-12-07T06:18:11.998Z,19.77
2022-12-07T06:19:11.958Z,19.78
2022-12-07T06:20:11.939Z,19.80
2022-12-07T06:21:11.873Z,19.78
2022-12-07T06:22:11.826Z,19.77
2022-12-07T06:23:11.787Z,19.77
2022-12-07T06:24:11.743Z,19.77
2022-12-07T06:25:11.695Z,19.77
2022-12-07T06:26:11.688Z,19.76
2022-12-07T06:27:11.606Z,19.77
2022-12-07T06:28:11.559Z,19.76
2022-12-07T06:29:11.522Z,19.76
2022-12-07T06:30:11.482Z,19.76
2022-12-07T06:31:14.108Z,19.76
2022-12-07T06:32:11.514Z,19.76
2022-12-07T06:33:11.359Z,19.77
2022-12-07T06:34:11.311Z,19.76
2022-12-07T06:35:11.263Z,19.76
2022-12-07T06:36:11.233Z,19.77
2022-12-07T06:37:11.185Z,19.76
2022-12-07T06:38:11.176Z,19.76
2022-12-07T06:39:11.103Z,19.76
2022-12-07T06:40:11.060Z,19.77
2022-12-07T06:41:11.092Z,19.77
2022-12-07T06:42:10.972Z,19.77
2022-12-07T06:43:10.932Z,19.77
2022-12-07T06:44:10.920Z,19.78
2022-12-07T06:45:10.877Z,19.77
2022-12-07T06:46:11.013Z,19.76
2022-12-07T06:47:41.317Z,19.77
2022-12-07T06:48:10.728Z,19.78
2022-12-07T06:49:10.685Z,19.78
2022-12-07T06:50:10.676Z,19.78
2022-12-07T06:51:10.600Z,19.77
2022-12-07T06:52:10.566Z,19.78
2022-12-07T06:53:10.520Z,19.77
2022-12-07T06:54:10.476Z,19.78
2022-12-07T06:55:10.432Z,19.77
2022-12-07T06:56:10.429Z,19.77
2022-12-07T06:57:10.363Z,19.78
2022-12-07T06:58:10.308Z,19.78
2022-12-07T06:59:10.268Z,19.78
2022-12-07T07:00:10.220Z,19.78
2022-12-07T07:01:10.236Z,19.77
2022-12-07T07:02:10.229Z,19.78
2022-12-07T07:03:10.102Z,19.78
2022-12-07T07:04:10.056Z,19.77
2022-12-07T07:05:10.016Z,19.78
2022-12-07T07:06:09.977Z,19.77
2022-12-07T07:07:09.937Z,19.77
2022-12-07T07:08:25.363Z,19.77
2022-12-07T07:09:09.931Z,19.76
2022-12-07T07:10:09.810Z,19.77
2022-12-07T07:11:09.758Z,19.77
2022-12-07T07:12:09.712Z,19.78
2022-12-07T07:13:09.674Z,19.77
2022-12-07T07:14:09.675Z,19.77
2022-12-07T07:15:09.597Z,19.77
2022-12-07T07:16:09.577Z,19.77
2022-12-07T07:17:09.583Z,19.76
2022-12-07T07:18:09.499Z,19.76
2022-12-07T07:19:09.457Z,19.77
2022-12-07T07:20:09.458Z,19.77
2022-12-07T07:21:09.398Z,19.76
2022-12-07T07:22:09.357Z,19.76
2022-12-07T07:23:09.315Z,19.76
2022-12-07T07:24:09.278Z,19.76
2022-12-07T07:25:09.234Z,19.74
2022-12-07T07:26:09.222Z,19.74
2022-12-07T07:27:09.158Z,19.74
2022-12-07T07:28:09.126Z,19.74
2022-12-07T07:29:09.082Z,19.74
2022-12-07T07:30:09.039Z,19.73
2022-12-07T07:31:09.098Z,19.73
2022-12-07T07:32:09.007Z,19.73
2022-12-07T07:33:08.927Z,19.73
2022-12-07T07:34:08.894Z,19.73
2022-12-07T07:35:08.857Z,19.71
2022-12-07T07:36:08.806Z,19.71
2022-12-07T07:37:08.780Z,19.71
2022-12-07T07:38:08.780Z,19.73
2022-12-07T07:39:08.686Z,19.73
2022-12-07T07:40:08.638Z,19.73
2022-12-07T07:41:08.614Z,19.69
2022-12-07T07:42:08.578Z,19.71
2022-12-07T07:43:08.540Z,19.71
2022-12-07T07:44:08.531Z,19.69
2022-12-07T07:45:08.463Z,19.68
2022-12-07T07:46:08.489Z,19.69
2022-12-07T07:47:08.383Z,19.69
2022-12-07T07:48:08.337Z,19.69
2022-12-07T07:49:08.287Z,19.69
2022-12-07T07:50:08.299Z,19.68
2022-12-07T07:51:08.227Z,19.68
2022-12-07T07:52:08.188Z,19.68
2022-12-07T07:53:08.144Z,19.66
2022-12-07T07:54:08.099Z,19.68
2022-12-07T07:55:08.071Z,19.68
2022-12-07T07:56:08.076Z,19.68
2022-12-07T07:57:07.988Z,19.68
2022-12-07T07:58:07.947Z,19.68
2022-12-07T07:59:07.913Z,19.68
2022-12-07T08:00:07.867Z,19.66
2022-12-07T08:01:07.905Z,19.66
2022-12-07T08:02:07.812Z,19.66
2022-12-07T08:03:07.763Z,19.68
2022-12-07T08:04:07.717Z,19.68
2022-12-07T08:05:07.782Z,19.68
2022-12-07T08:06:07.639Z,19.68
2022-12-07T08:07:07.607Z,19.69
2022-12-07T08:08:07.649Z,19.69
2022-12-07T08:09:07.537Z,19.71
2022-12-07T08:10:07.506Z,19.69
2022-12-07T08:11:07.460Z,19.71
2022-12-07T08:12:07.424Z,19.71
2022-12-07T08:13:07.396Z,19.73
2022-12-07T08:14:07.380Z,19.73
2022-12-07T08:15:07.352Z,19.73
2022-12-07T08:16:07.348Z,19.73
2022-12-07T08:17:07.250Z,19.74
2022-12-07T08:18:07.206Z,19.74
2022-12-07T08:19:07.168Z,19.74
2022-12-07T08:20:07.173Z,19.73
2022-12-07T08:21:07.100Z,19.73
2022-12-07T08:22:07.064Z,19.76
2022-12-07T08:23:07.027Z,19.74
2022-12-07T08:24:06.977Z,19.73
2022-12-07T08:25:06.933Z,19.74
2022-12-07T08:26:06.916Z,19.73
2022-12-07T08:27:06.840Z,19.76
2022-12-07T08:28:06.805Z,19.76
2022-12-07T08:29:06.761Z,19.76
2022-12-07T08:30:06.725Z,19.76
2022-12-07T08:31:06.737Z,19.76
2022-12-07T08:32:09.715Z,19.77
2022-12-07T08:33:06.604Z,19.77
2022-12-07T08:34:06.580Z,19.78
2022-12-07T08:35:06.540Z,19.78
2022-12-07T08:36:06.509Z,19.78
2022-12-07T08:37:06.476Z,19.78
2022-12-07T08:38:06.464Z,19.78
2022-12-07T08:40:06.521Z,19.81
2022-12-07T08:41:06.322Z,19.80
2022-12-07T08:42:06.306Z,19.83
2022-12-07T08:43:06.252Z,19.83
2022-12-07T08:44:06.263Z,19.83
2022-12-07T08:45:06.183Z,19.81
2022-12-07T08:46:06.306Z,19.83
2022-12-07T08:47:06.106Z,19.80
2022-12-07T08:48:06.061Z,19.80
2022-12-07T08:49:06.031Z,19.80
2022-12-07T08:50:06.066Z,19.78
2022-12-07T08:51:05.946Z,19.78
2022-12-07T08:52:05.899Z,19.78
2022-12-07T08:53:05.862Z,19.77
2022-12-07T08:54:05.822Z,19.76
2022-12-07T08:55:05.773Z,19.76
2022-12-07T08:56:05.768Z,19.77
2022-12-07T08:57:05.685Z,19.77
2022-12-07T08:58:05.637Z,19.76
2022-12-07T08:59:05.598Z,19.77
2022-12-07T09:00:05.847Z,19.77
2022-12-07T09:01:05.513Z,19.76
2022-12-07T09:02:05.656Z,19.76
2022-12-07T09:03:05.443Z,19.76
2022-12-07T09:04:05.398Z,19.76
2022-12-07T09:05:05.358Z,19.77
2022-12-07T09:06:05.492Z,19.76
2022-12-07T09:07:05.430Z,19.76
2022-12-07T09:08:05.351Z,19.76
2022-12-07T09:09:05.213Z,19.74
2022-12-07T09:10:05.473Z,19.74
2022-12-07T09:11:05.125Z,19.74
2022-12-07T09:12:05.088Z,19.73
2022-12-07T09:13:05.053Z,19.73
2022-12-07T09:14:05.062Z,19.73
2022-12-07T09:15:04.979Z,19.71
2022-12-07T09:16:05.058Z,19.73
2022-12-07T09:17:04.898Z,19.73
2022-12-07T09:18:04.858Z,19.71
2022-12-07T09:19:04.834Z,19.73
2022-12-07T09:20:05.356Z,19.73
2022-12-07T09:21:04.745Z,19.69
2022-12-07T09:22:04.703Z,19.69
2022-12-07T09:23:04.662Z,19.71
2022-12-07T09:24:04.635Z,19.74
2022-12-07T09:25:04.609Z,19.74
2022-12-07T09:26:10.204Z,19.74
2022-12-07T09:27:04.498Z,19.74
2022-12-07T09:28:04.447Z,19.73
2022-12-07T09:29:04.398Z,19.73
2022-12-07T09:30:04.662Z,19.73
2022-12-07T09:32:09.826Z,19.73
2022-12-07T09:33:04.241Z,19.74
2022-12-07T09:34:04.245Z,19.74
2022-12-07T09:35:04.155Z,19.74
2022-12-07T09:36:04.111Z,19.74
2022-12-07T09:37:04.062Z,19.73
2022-12-07T09:38:04.050Z,19.74
2022-12-07T09:39:03.986Z,19.76
2022-12-07T09:40:04.147Z,19.77
2022-12-07T09:41:03.909Z,19.77
2022-12-07T09:42:03.874Z,19.76
2022-12-07T09:43:03.906Z,19.74
2022-12-07T09:44:03.822Z,19.76
2022-12-07T09:45:03.752Z,19.74
2022-12-07T09:46:03.773Z,19.74
2022-12-07T09:47:03.661Z,19.74
2022-12-07T09:48:03.618Z,19.74
2022-12-07T09:49:03.582Z,19.76
2022-12-07T09:50:03.930Z,19.77
2022-12-07T09:51:03.492Z,19.76
2022-12-07T09:52:03.461Z,19.76
2022-12-07T09:53:03.406Z,19.77
2022-12-07T09:54:03.375Z,19.78
2022-12-07T09:55:03.574Z,19.78
2022-12-07T09:56:03.331Z,19.78
2022-12-07T09:57:03.263Z,19.77
2022-12-07T09:58:03.220Z,19.76
2022-12-07T09:59:03.192Z,19.77
2022-12-07T10:00:03.131Z,19.76
2022-12-07T10:01:03.089Z,19.76
2022-12-07T10:02:03.119Z,19.74
2022-12-07T10:03:03.007Z,19.73
2022-12-07T10:04:02.972Z,19.76
2022-12-07T10:05:03.360Z,19.74
2022-12-07T10:06:02.891Z,19.74
2022-12-07T10:07:02.850Z,19.74
2022-12-07T10:08:02.938Z,19.73
2022-12-07T10:09:02.775Z,19.76
2022-12-07T10:10:02.740Z,19.74
2022-12-07T10:11:02.700Z,19.74
2022-12-07T10:12:02.669Z,19.73
2022-12-07T10:13:02.635Z,19.74
2022-12-07T10:14:02.627Z,19.74
2022-12-07T10:15:07.720Z,19.76
2022-12-07T10:16:07.020Z,19.74
2022-12-07T10:17:02.480Z,19.73
2022-12-07T10:18:02.444Z,19.73
2022-12-07T10:19:02.399Z,19.73
2022-12-07T10:20:02.384Z,19.73
2022-12-07T10:21:02.315Z,19.73
2022-12-07T10:22:02.293Z,19.73
2022-12-07T10:23:02.283Z,19.73
2022-12-07T10:24:02.235Z,19.73
2022-12-07T10:25:02.469Z,19.73
2022-12-07T10:26:02.165Z,19.73
2022-12-07T10:27:02.096Z,19.73
2022-12-07T10:28:02.051Z,19.71
2022-12-07T10:29:02.021Z,19.71
2022-12-07T10:30:01.979Z,19.71
2022-12-07T10:31:01.970Z,19.71
2022-12-07T10:32:01.933Z,19.73
2022-12-07T10:33:01.859Z,19.71
2022-12-07T10:34:01.820Z,19.69
2022-12-07T10:35:01.825Z,19.71
2022-12-07T10:36:01.751Z,19.71
2022-12-07T10:37:01.708Z,19.69
2022-12-07T10:38:01.696Z,19.68
2022-12-07T10:39:01.638Z,19.69
2022-12-07T10:40:01.584Z,19.69
2022-12-07T10:41:01.544Z,19.66
2022-12-07T10:42:01.508Z,19.68
2022-12-07T10:43:01.468Z,19.68
2022-12-07T10:44:01.482Z,19.66
2022-12-07T10:45:01.798Z,19.66
2022-12-07T10:46:06.143Z,19.68
2022-12-07T10:47:01.429Z,19.68
2022-12-07T10:48:01.273Z,19.68
2022-12-07T10:49:01.227Z,19.76
2022-12-07T10:50:01.212Z,19.80
2022-12-07T10:51:01.144Z,19.86
2022-12-07T10:52:01.105Z,19.87
2022-12-07T10:53:01.078Z,19.96
2022-12-07T10:54:01.020Z,20.21
2022-12-07T10:55:01.524Z,20.43
2022-12-07T10:56:00.982Z,20.61
2022-12-07T10:57:00.892Z,20.73
2022-12-07T10:58:00.859Z,20.82
2022-12-07T10:59:00.822Z,20.82
2022-12-07T11:00:00.773Z,20.76
2022-12-07T11:01:00.817Z,20.69
2022-12-07T11:02:00.731Z,20.66
2022-12-07T11:03:00.637Z,20.55
2022-12-07T11:04:00.586Z,20.50
2022-12-07T11:05:01.001Z,20.42
2022-12-07T11:06:00.497Z,20.36
2022-12-07T11:07:00.451Z,20.31
2022-12-07T11:08:00.503Z,20.28
2022-12-07T11:09:00.366Z,20.24
2022-12-07T11:10:08.500Z,20.24
2022-12-07T11:11:00.302Z,20.28
2022-12-07T11:12:00.245Z,20.32
2022-12-07T11:13:00.210Z,20.32
2022-12-07T11:14:00.189Z,20.29
2022-12-07T11:15:00.129Z,20.26
2022-12-07T11:16:00.197Z,20.23
2022-12-07T11:17:00.029Z,20.21
2022-12-07T11:17:59.981Z,20.18
2022-12-07T11:18:59.942Z,20.17
2022-12-07T11:20:00.300Z,20.14
2022-12-07T11:20:59.838Z,20.13
2022-12-07T11:21:59.798Z,20.10
2022-12-07T11:22:59.761Z,20.08
2022-12-07T11:23:59.702Z,20.08
2022-12-07T11:24:59.658Z,20.03
2022-12-07T11:25:59.653Z,20.02
2022-12-07T11:26:59.571Z,20.01
2022-12-07T11:27:59.530Z,20.03
2022-12-07T11:28:59.483Z,20.02
2022-12-07T11:29:59.686Z,20.05
2022-12-07T11:30:59.395Z,20.10
2022-12-07T11:31:59.450Z,20.17
2022-12-07T11:32:59.302Z,20.28
2022-12-07T11:33:59.251Z,20.36
2022-12-07T11:34:59.206Z,20.50
2022-12-07T11:35:59.160Z,20.58
2022-12-07T11:36:59.115Z,20.67
2022-12-07T11:37:59.086Z,20.74
2022-12-07T11:38:59.023Z,20.70
2022-12-07T11:39:58.973Z,20.59
2022-12-07T11:40:58.923Z,20.51
2022-12-07T11:41:58.876Z,20.42
2022-12-07T11:42:58.831Z,20.35
2022-12-07T11:43:58.818Z,20.29
2022-12-07T11:44:58.726Z,20.24
2022-12-07T11:45:58.711Z,20.20
2022-12-07T11:46:58.681Z,20.16
2022-12-07T11:47:58.575Z,20.13
2022-12-07T11:48:58.523Z,20.10
2022-12-07T11:49:58.496Z,20.08
2022-12-07T11:50:58.418Z,20.06
2022-12-07T11:51:58.363Z,20.05
2022-12-07T11:52:58.323Z,20.03
2022-12-07T11:53:58.267Z,20.02
2022-12-07T11:54:58.219Z,20.01
2022-12-07T11:55:58.211Z,19.99
2022-12-07T11:56:58.116Z,19.98
2022-12-07T11:57:58.067Z,19.99
2022-12-07T11:58:58.024Z,19.96
2022-12-07T11:59:57.979Z,19.96
2022-12-07T12:00:57.926Z,19.95
2022-12-07T12:01:57.955Z,19.94
2022-12-07T12:02:57.882Z,19.96
2022-12-07T12:03:57.776Z,19.95
2022-12-07T12:04:57.727Z,19.95
2022-12-07T12:05:57.692Z,19.96
2022-12-07T12:06:57.750Z,20.05
2022-12-07T12:09:57.521Z,20.05
2022-12-07T12:10:57.470Z,20.03
2022-12-07T12:14:34.947Z,20.10
2022-12-07T12:14:43.335Z,20.10
2022-12-07T12:15:40.353Z,20.10
2022-12-07T12:16:40.383Z,20.08
2022-12-07T12:17:40.248Z,20.08
2022-12-07T12:18:40.200Z,20.06
2022-12-07T12:19:40.186Z,20.06
2022-12-07T12:20:40.113Z,20.13
2022-12-07T12:21:40.060Z,20.29
2022-12-07T12:22:40.010Z,20.52
2022-12-07T12:23:39.961Z,20.94
2022-12-07T12:24:39.909Z,20.91
2022-12-07T12:25:39.915Z,20.79
2022-12-07T12:26:39.805Z,20.70
2022-12-07T12:27:39.752Z,20.73
2022-12-07T12:28:41.308Z,20.82
2022-12-07T12:29:39.674Z,20.72
2022-12-07T12:30:39.626Z,20.57
2022-12-07T12:31:39.644Z,20.42
2022-12-07T12:32:39.535Z,20.35
2022-12-07T12:33:39.499Z,20.24
2022-12-07T12:34:39.443Z,20.20
2022-12-07T12:35:39.401Z,20.14
2022-12-07T12:36:39.448Z,20.13
2022-12-07T12:37:39.368Z,20.10
2022-12-07T12:38:39.289Z,20.08
2022-12-07T12:39:39.249Z,20.03
2022-12-07T12:40:39.206Z,20.02
2022-12-07T12:41:39.167Z,20.01
2022-12-07T12:42:39.113Z,19.99
2022-12-07T12:43:39.106Z,19.98
2022-12-07T12:44:39.034Z,19.96
2022-12-07T12:45:39.078Z,19.96
2022-12-07T12:46:38.941Z,19.94
2022-12-07T12:47:38.893Z,19.94
2022-12-07T12:48:38.853Z,19.92
2022-12-07T12:49:38.850Z,19.92
2022-12-07T12:50:38.792Z,19.88
2022-12-07T12:51:38.726Z,19.88
2022-12-07T12:52:38.686Z,19.86
2022-12-07T12:53:38.667Z,19.86
2022-12-07T12:54:38.611Z,19.84
2022-12-07T12:55:38.589Z,19.84
2022-12-07T12:56:38.506Z,19.81
2022-12-07T12:57:38.462Z,19.81